createdAt,value
2022-11-16T00:00:36.816Z,86.44
2022-11-16T00:03:09.289Z,86.61
2022-11-16T00:05:41.115Z,87.00
2022-11-16T00:08:21.845Z,86.36
2022-11-16T00:10:54.747Z,86.58
2022-11-16T00:13:28.829Z,86.52
2022-11-16T00:16:01.013Z,86.52
2022-11-16T00:18:32.906Z,86.48
2022-11-16T00:21:08.941Z,86.28
2022-11-16T00:23:42.524Z,86.49
2022-11-16T00:26:17.179Z,86.68
2022-11-16T00:28:50.756Z,86.31
2022-11-16T00:31:22.560Z,86.27
2022-11-16T00:33:55.192Z,86.59
2022-11-16T00:36:26.395Z,86.51
2022-11-16T00:39:00.398Z,86.23
2022-11-16T00:41:30.851Z,85.93
2022-11-16T00:44:07.534Z,86.01
2022-11-16T00:46:41.232Z,85.89
2022-11-16T00:49:12.421Z,85.94
2022-11-16T00:51:46.399Z,86.15
2022-11-16T00:54:19.797Z,86.37
2022-11-16T00:56:53.128Z,86.61
2022-11-16T00:59:28.663Z,86.81
2022-11-16T01:02:03.358Z,86.52
2022-11-16T01:04:32.868Z,86.53
2022-11-16T01:07:05.137Z,86.93
2022-11-16T01:09:38.265Z,86.78
2022-11-16T01:12:15.357Z,87.09
2022-11-16T01:14:48.001Z,87.02
2022-11-16T01:17:19.840Z,86.70
2022-11-16T11:20:04.749Z,72.53
2022-11-16T11:22:35.005Z,72.30
2022-11-16T11:25:05.253Z,72.34
2022-11-16T11:27:37.303Z,72.44
2022-11-16T11:30:07.521Z,72.45
2022-11-16T11:32:42.075Z,73.03
2022-11-16T11:35:25.067Z,72.63
2022-11-16T11:37:57.094Z,73.15
2022-11-16T11:40:27.762Z,72.99
2022-11-16T11:43:04.491Z,72.93
2022-11-16T11:45:44.008Z,73.07
2022-11-16T11:48:26.355Z,72.86
2022-11-16T11:51:00.717Z,73.03
2022-11-16T11:53:44.129Z,73.18
2022-11-16T11:56:14.494Z,73.47
2022-11-16T11:58:44.597Z,73.33
2022-11-16T12:01:55.513Z,73.46
2022-11-16T12:05:12.078Z,73.74
2022-11-16T12:07:58.289Z,73.95
2022-11-16T12:10:39.871Z,73.59
2022-11-16T12:13:27.396Z,73.56
2022-11-16T12:16:09.664Z,73.70
2022-11-16T12:18:50.368Z,73.95
2022-11-16T12:21:31.101Z,73.87
2022-11-16T12:24:20.203Z,73.54
2022-11-16T12:27:06.026Z,73.75
2022-11-16T12:29:46.565Z,74.07
2022-11-16T12:32:37.269Z,73.93
2022-11-16T12:35:19.911Z,74.07
2022-11-16T12:37:57.789Z,74.52
2022-11-16T12:40:43.510Z,74.24
2022-11-16T12:43:22.993Z,74.70
2022-11-16T12:46:00.678Z,74.53
2022-11-16T12:48:55.606Z,74.53
2022-11-16T12:51:42.595Z,74.76
2022-11-16T12:54:28.154Z,74.81
2022-11-16T12:57:06.667Z,75.00
2022-11-16T12:59:57.872Z,74.65
2022-11-16T13:02:40.702Z,75.01
2022-11-16T13:05:17.310Z,75.14
2022-11-16T13:07:49.526Z,74.88
2022-11-16T13:10:23.606Z,74.89
2022-11-16T13:13:21.909Z,75.04
2022-11-16T13:15:48.437Z,74.90
2022-11-16T13:18:22.353Z,75.16
2022-11-16T13:20:58.835Z,75.00
2022-11-16T13:23:49.557Z,75.19
2022-11-16T13:26:24.058Z,75.38
2022-11-16T13:29:01.436Z,75.10
2022-11-16T13:31:37.307Z,75.70
2022-11-16T13:34:14.489Z,75.54
2022-11-16T13:36:45.945Z,76.11
2022-11-16T13:39:22.006Z,76.35
2022-11-16T13:41:54.068Z,76.24
2022-11-16T13:44:31.824Z,76.56
2022-11-16T13:47:05.893Z,76.56
2022-11-16T13:49:37.507Z,76.99
2022-11-16T13:52:23.118Z,76.96
2022-11-16T13:54:56.089Z,77.24
2022-11-16T13:57:28.070Z,77.35
2022-11-16T14:00:12.618Z,77.78
2022-11-16T14:02:43.213Z,77.96
2022-11-16T14:05:39.419Z,78.01
2022-11-16T14:08:41.389Z,77.81
2022-11-16T14:11:35.608Z,77.68
2022-11-16T14:14:07.443Z,77.82
2022-11-16T14:16:58.738Z,77.84
2022-11-16T14:19:55.417Z,77.80
2022-11-16T14:22:52.379Z,77.53
2022-11-16T14:25:32.294Z,77.48
2022-11-16T14:28:31.144Z,77.26
2022-11-16T14:31:15.318Z,76.72
2022-11-16T14:33:51.924Z,76.54
2022-11-16T14:36:38.642Z,76.24
2022-11-16T14:39:28.740Z,75.94
2022-11-16T14:42:00.953Z,75.20
2022-11-16T14:44:33.605Z,74.76
2022-11-16T14:47:04.574Z,74.43
2022-11-16T14:49:38.163Z,74.19
2022-11-16T14:52:08.904Z,74.02
2022-11-16T14:54:43.425Z,74.13
2022-11-16T14:57:19.564Z,73.82
2022-11-16T14:59:48.760Z,73.20
2022-11-16T15:02:22.147Z,73.25
2022-11-16T15:04:54.652Z,73.20
2022-11-16T15:07:26.037Z,73.40
2022-11-16T15:09:58.901Z,73.17
2022-11-16T15:12:46.391Z,73.42
2022-11-16T15:15:18.645Z,73.54
2022-11-16T15:17:53.679Z,73.45
2022-11-16T15:20:26.594Z,73.45
2022-11-16T15:22:58.506Z,73.07
2022-11-16T15:25:30.234Z,73.29
2022-11-16T15:28:01.527Z,73.35
2022-11-16T15:30:33.437Z,73.41
2022-11-16T15:33:04.915Z,73.28
2022-11-16T15:35:37.036Z,72.99
2022-11-16T15:38:08.731Z,73.50
2022-11-16T15:40:38.210Z,72.93
2022-11-16T15:43:08.611Z,72.93
2022-11-16T15:45:39.382Z,72.93
2022-11-16T15:48:08.773Z,72.87
2022-11-16T15:50:39.493Z,72.93
2022-11-16T15:53:23.285Z,73.10
2022-11-16T15:55:52.577Z,72.50
2022-11-16T15:58:26.806Z,72.89
2022-11-16T16:00:57.151Z,73.16
2022-11-16T16:03:28.312Z,72.60
2022-11-16T16:05:58.957Z,72.96
2022-11-16T16:08:33.094Z,72.50
2022-11-16T16:11:13.038Z,72.35
2022-11-16T16:14:23.561Z,72.10
2022-11-16T16:16:53.749Z,72.24
2022-11-16T16:19:37.802Z,72.12
2022-11-16T16:22:15.836Z,71.99
2022-11-16T16:24:47.056Z,72.23
2022-11-16T16:27:18.861Z,72.06
2022-11-16T16:29:49.274Z,72.01
2022-11-16T16:32:27.425Z,71.68
2022-11-16T16:34:58.272Z,71.77
2022-11-16T16:37:30.406Z,71.76
2022-11-16T16:40:00.459Z,72.03
2022-11-16T16:42:29.816Z,71.99
2022-11-16T16:45:02.455Z,71.73
2022-11-16T16:47:32.737Z,71.44
2022-11-16T16:50:02.093Z,71.49
2022-11-16T16:52:33.835Z,71.18
2022-11-16T16:55:03.259Z,71.07
2022-11-16T16:57:32.488Z,71.22
2022-11-16T17:00:01.935Z,71.38
2022-11-16T17:02:31.294Z,71.10
2022-11-16T17:05:00.461Z,71.39
2022-11-16T17:07:29.816Z,71.70
2022-11-16T17:10:00.688Z,71.11
2022-11-16T17:12:30.004Z,71.34
2022-11-16T17:14:59.211Z,71.28
2022-11-16T17:17:28.688Z,71.35
2022-11-16T17:19:57.900Z,71.13
2022-11-16T17:22:27.123Z,71.35
2022-11-16T17:24:56.340Z,71.10
2022-11-16T17:27:27.141Z,71.05
2022-11-16T17:29:56.323Z,71.28
2022-11-16T17:32:25.547Z,71.27
2022-11-16T17:34:54.721Z,71.56
2022-11-16T17:37:23.784Z,71.49
2022-11-16T17:39:52.882Z,71.54
2022-11-16T17:42:21.959Z,71.33
2022-11-16T17:44:54.362Z,71.23
2022-11-16T17:47:23.424Z,71.19
2022-11-16T17:49:52.507Z,71.38
2022-11-16T17:52:22.321Z,71.29
2022-11-16T17:54:51.518Z,71.27
2022-11-16T17:57:20.686Z,70.90
2022-11-16T17:59:49.867Z,71.29
2022-11-16T18:02:20.533Z,71.27
2022-11-16T18:04:51.203Z,71.37
2022-11-16T18:07:20.870Z,71.29
2022-11-16T18:09:50.141Z,71.26
2022-11-16T18:12:19.389Z,71.08
2022-11-16T18:15:13.441Z,71.18
2022-11-16T18:17:39.385Z,71.34
2022-11-16T18:20:09.722Z,71.44
2022-11-16T18:22:38.931Z,71.11
2022-11-16T18:25:08.656Z,71.22
2022-11-16T18:27:37.872Z,71.40
2022-11-16T18:30:08.282Z,71.44
2022-11-16T18:32:39.017Z,71.74
2022-11-16T18:35:10.448Z,71.84
2022-11-16T18:37:39.648Z,71.81
2022-11-16T18:40:10.070Z,71.69
2022-11-16T18:42:39.480Z,71.55
2022-11-16T18:45:09.872Z,71.74
2022-11-16T18:47:40.786Z,71.81
2022-11-16T18:50:18.922Z,71.64
2022-11-16T18:52:49.437Z,71.55
2022-11-16T18:55:18.747Z,71.34
2022-11-16T18:57:47.938Z,71.14
2022-11-16T19:00:19.864Z,70.68
2022-11-16T19:02:50.645Z,70.88
2022-11-16T19:05:19.872Z,70.86
2022-11-16T19:07:49.099Z,70.95
2022-11-16T19:10:18.343Z,71.41
2022-11-16T19:12:47.505Z,71.55
2022-11-16T19:15:16.784Z,71.31
2022-11-16T19:18:14.238Z,71.29
2022-11-16T19:20:36.758Z,71.84
2022-11-16T19:23:06.585Z,72.13
2022-11-16T19:25:35.837Z,72.17
2022-11-16T19:28:05.786Z,72.29
2022-11-16T19:30:35.081Z,72.38
2022-11-16T19:33:04.548Z,72.68
2022-11-16T19:35:33.808Z,72.74
2022-11-16T19:38:04.548Z,73.23
2022-11-16T19:40:33.874Z,73.14
2022-11-16T19:43:03.087Z,74.37
2022-11-16T19:45:32.288Z,73.77
2022-11-16T19:48:02.156Z,73.75
2022-11-16T19:50:31.396Z,73.91
2022-11-16T19:53:00.580Z,74.07
2022-11-16T19:55:31.301Z,74.54
2022-11-16T19:58:00.524Z,74.85
2022-11-16T20:00:29.677Z,74.89
2022-11-16T20:02:59.364Z,75.28
2022-11-16T20:05:30.423Z,75.24
2022-11-16T20:07:59.582Z,74.88
2022-11-16T20:10:31.302Z,75.39
2022-11-16T20:13:00.637Z,75.70
2022-11-16T20:15:29.809Z,75.85
2022-11-16T20:17:59.001Z,75.98
2022-11-16T20:20:28.223Z,76.23
2022-11-16T20:22:58.085Z,76.27
2022-11-16T20:25:27.323Z,76.24
2022-11-16T20:27:58.084Z,76.22
2022-11-16T20:30:27.248Z,76.78
2022-11-16T20:32:56.422Z,76.82
2022-11-16T20:35:25.599Z,76.94
2022-11-16T20:37:54.838Z,76.64
2022-11-16T20:40:24.095Z,77.12
2022-11-16T20:42:53.351Z,76.91
2022-11-16T20:45:24.097Z,77.01
2022-11-16T20:47:53.323Z,77.14
2022-11-16T20:50:22.586Z,77.57
2022-11-16T20:52:52.989Z,78.26
2022-11-16T20:55:22.237Z,77.88
2022-11-16T20:57:51.403Z,77.87
2022-11-16T21:00:21.178Z,78.87
2022-11-16T21:02:51.908Z,78.71
2022-11-16T21:05:21.125Z,78.83
2022-11-16T21:07:50.389Z,78.73
2022-11-16T21:10:22.759Z,79.79
2022-11-16T21:13:08.724Z,80.04
2022-11-16T21:15:38.076Z,80.94
2022-11-16T21:18:08.887Z,80.58
2022-11-16T21:20:38.172Z,80.30
2022-11-16T21:23:07.489Z,80.49
2022-11-16T21:25:36.743Z,81.83
2022-11-16T21:28:06.127Z,80.75
2022-11-16T21:30:35.413Z,81.70
2022-11-16T21:33:04.592Z,81.17
2022-11-16T21:35:35.302Z,81.37
2022-11-16T21:38:04.516Z,81.63
2022-11-16T21:40:33.733Z,82.13
2022-11-16T21:43:02.919Z,82.02
2022-11-16T21:45:32.140Z,81.38
2022-11-16T21:48:01.364Z,81.63
2022-11-16T21:50:32.169Z,81.40
2022-11-16T21:53:03.376Z,81.42
2022-11-16T21:55:32.757Z,81.40
2022-11-16T21:58:03.923Z,81.60
2022-11-16T22:00:33.490Z,81.10
2022-11-16T22:03:02.768Z,81.16
2022-11-16T22:05:49.207Z,81.44
2022-11-16T22:08:20.003Z,81.58
2022-11-16T22:10:52.666Z,81.27
2022-11-16T22:13:22.362Z,81.36
2022-11-16T22:15:51.552Z,81.19
2022-11-16T22:18:20.788Z,80.97
2022-11-16T22:20:50.888Z,81.01
2022-11-16T22:23:23.315Z,80.97
2022-11-16T22:25:53.050Z,81.23
2022-11-16T22:28:22.643Z,80.85
2022-11-16T22:30:52.407Z,80.99
2022-11-16T22:33:21.942Z,81.03
2022-11-16T22:35:51.110Z,80.88
2022-11-16T22:38:21.911Z,80.50
2022-11-16T22:40:52.619Z,80.52
2022-11-16T22:43:22.973Z,80.85
2022-11-16T22:45:52.162Z,80.41
2022-11-16T22:48:21.372Z,80.35
2022-11-16T22:50:50.542Z,80.28
2022-11-16T22:53:21.266Z,80.34
2022-11-16T22:55:50.514Z,79.98
2022-11-16T22:58:19.744Z,80.04
2022-11-16T23:00:49.573Z,80.16
2022-11-16T23:03:18.766Z,80.12
2022-11-16T23:05:48.150Z,79.96
2022-11-16T23:08:17.366Z,80.05
2022-11-16T23:11:01.624Z,80.23
2022-11-16T23:13:47.828Z,79.89
2022-11-16T23:16:17.084Z,79.54
2022-11-16T23:18:49.139Z,79.69
2022-11-16T23:21:35.220Z,79.33
2022-11-16T23:24:20.688Z,79.43
2022-11-16T23:27:08.682Z,79.12
2022-11-16T23:29:37.992Z,79.21
2022-11-16T23:32:07.773Z,79.26
2022-11-16T23:34:37.234Z,79.22
2022-11-16T23:37:06.891Z,78.79
2022-11-16T23:39:36.521Z,78.34
2022-11-16T23:42:24.308Z,78.65
2022-11-16T23:44:53.594Z,78.82
2022-11-16T23:47:22.876Z,78.70
2022-11-16T23:49:52.065Z,78.80
2022-11-16T23:52:21.241Z,78.86
2022-11-16T23:54:50.461Z,78.59
2022-11-16T23:57:21.254Z,78.47
2022-11-16T23:59:50.433Z,78.86
